Parrish, Wisconsin
Current Conditions -  °F | °C
As of 11:35 PM on Wednesday 22 Oct 2014 (Local Time) from KRRL Reporting Station
Scattered Clouds Scattered Clouds  
Wind Chill: 38°   Ceiling: Unl
Heat Index: 41°   Visibility: 10mi
Dew Point: 37°   Wind: 6mph
Humidity: 86%   Direction: 150°SSE
Pressure: 30.18"   Gusts: NA
Location:  45.3595°N, 89.45°W
Report Text: KRRL 230435Z AUTO 15005KT 10SM SCT090 05/03 A3018 RMK AO2 T00520030
Loading
Personal Weather Stations






























Interactive Weather Map
Tropical Storm Tracking
New forecast layout! Learn more

10-Day Weather Forecast

Advertisements
Track Severe Weather on mobile